Time;durP1;ratioP1;P1;durP2;ratioP2;P2;SDS_P1;SDS_P2;PMS_P1;PMS_P2;Temp;Humidity;BMP_temperature;BMP_pressure;BME280_temperature;BME280_humidity;BME280_pressure;Samples;Min_cycle;Max_cycle;Signal;HPM_P1;HPM_P2
2023/07/14 00:06:17;;;;;;;;;;;14.80;99.90;;;;;;20992824;28;19948;-76
2023/07/14 00:16:19;;;;;;;;;;;15.30;99.90;;;;;;20974192;28;19924;-77
2023/07/14 00:26:20;;;;;;;;;;;15.30;99.90;;;;;;20992063;28;19913;-76
2023/07/14 00:36:22;;;;;;;;;;;15.40;99.90;;;;;;20993189;28;20286;-76
2023/07/14 00:46:27;;;;;;;;;;;15.40;99.90;;;;;;21004008;28;19916;-77
2023/07/14 00:56:34;;;;;;;;;;;14.50;99.90;;;;;;20994117;28;19917;-76
2023/07/14 01:06:38;;;;;;;;;;;14.30;99.90;;;;;;20974966;28;19927;-77
2023/07/14 01:16:40;;;;;;;;;;;14.90;99.90;;;;;;20983445;28;19955;-77
2023/07/14 01:26:44;;;;;;;;;;;15.10;99.90;;;;;;20988620;28;20297;-76
2023/07/14 01:36:45;;;;;;;;;;;15.20;99.90;;;;;;20970941;22;20011;-84
2023/07/14 01:46:46;;;;;;;;;;;15.20;99.90;;;;;;20919161;28;19964;-83
2023/07/14 01:56:47;;;;;;;;;;;15.10;99.90;;;;;;20899999;28;19920;-85
2023/07/14 02:06:49;;;;;;;;;;;14.90;99.90;;;;;;20878882;28;19928;-86
2023/07/14 02:16:50;;;;;;;;;;;14.90;99.90;;;;;;20883771;28;19917;-83
2023/07/14 02:26:56;;;;;;;;;;;14.80;99.90;;;;;;20995640;28;19912;-83
2023/07/14 02:37:01;;;;;;;;;;;14.70;99.90;;;;;;20928964;28;20000;-82
2023/07/14 02:47:05;;;;;;;;;;;14.40;99.90;;;;;;20954739;28;19912;-86
2023/07/14 02:57:05;;;;;;;;;;;14.20;99.90;;;;;;20963378;28;20347;-84
2023/07/14 03:07:06;;;;;;;;;;;14.50;99.90;;;;;;20978561;28;20310;-83
2023/07/14 03:17:08;;;;;;;;;;;14.40;99.90;;;;;;20967665;28;19917;-83
2023/07/14 03:27:08;;;;;;;;;;;14.50;99.90;;;;;;20950496;28;20265;-85
2023/07/14 03:37:09;;;;;;;;;;;14.40;99.90;;;;;;20876893;28;20292;-83
2023/07/14 03:47:10;;;;;;;;;;;14.30;99.90;;;;;;20911140;28;19938;-83
2023/07/14 03:57:10;;;;;;;;;;;14.30;99.90;;;;;;20882403;28;20395;-85
2023/07/14 04:07:11;;;;;;;;;;;14.30;99.90;;;;;;20814650;28;19967;-83
2023/07/14 04:17:12;;;;;;;;;;;14.30;99.90;;;;;;20854375;28;20054;-85
2023/07/14 04:27:12;;;;;;;;;;;14.20;99.90;;;;;;20802660;28;20271;-85
2023/07/14 04:37:13;;;;;;;;;;;14.30;99.90;;;;;;20849937;28;19923;-81
2023/07/14 04:47:14;;;;;;;;;;;14.40;99.90;;;;;;20912536;28;19913;-82
2023/07/14 04:57:14;;;;;;;;;;;14.50;99.90;;;;;;20938108;28;19920;-82
2023/07/14 05:07:19;;;;;;;;;;;14.50;99.90;;;;;;20939042;28;19952;-83
2023/07/14 05:17:19;;;;;;;;;;;14.60;99.90;;;;;;20904389;28;19925;-86
2023/07/14 05:27:20;;;;;;;;;;;15.20;99.90;;;;;;20918137;28;19961;-86
2023/07/14 05:37:21;;;;;;;;;;;15.70;99.90;;;;;;20915064;28;19916;-82
2023/07/14 05:47:23;;;;;;;;;;;16.20;99.90;;;;;;20940827;28;20445;-83
2023/07/14 05:57:24;;;;;;;;;;;16.50;99.90;;;;;;20856123;28;19917;-86
2023/07/14 06:07:25;;;;;;;;;;;17.00;99.90;;;;;;20871696;28;20004;-86
2023/07/14 06:17:25;;;;;;;;;;;17.70;99.90;;;;;;20956397;28;20292;-87
2023/07/14 06:27:31;;;;;;;;;;;17.70;99.90;;;;;;20963597;28;19919;-86
2023/07/14 06:37:32;;;;;;;;;;;17.50;99.90;;;;;;20962280;28;19924;-86
2023/07/14 06:47:32;;;;;;;;;;;17.70;99.90;;;;;;20857832;28;19913;-86
2023/07/14 06:57:33;;;;;;;;;;;17.90;99.90;;;;;;20877016;28;19948;-85
2023/07/14 07:07:34;;;;;;;;;;;18.90;99.90;;;;;;20876953;28;19913;-84
2023/07/14 07:17:34;;;;;;;;;;;19.80;99.90;;;;;;20892516;28;19948;-86
2023/07/14 07:37:37;;;;;;;;;;;20.70;99.90;;;;;;20827192;28;19971;-78
2023/07/14 07:47:38;;;;;;;;;;;20.80;99.90;;;;;;20794468;28;19917;-78
2023/07/14 07:57:40;;;;;;;;;;;21.40;99.90;;;;;;20827320;28;19952;-78
2023/07/14 08:07:41;;;;;;;;;;;21.90;99.90;;;;;;20826041;28;19913;-78
2023/07/14 08:17:52;;;;;;;;;;;22.90;99.90;;;;;;20904829;28;19924;-79
2023/07/14 08:27:53;;;;;;;;;;;23.10;99.90;;;;;;20889658;28;20011;-77
2023/07/14 08:37:53;;;;;;;;;;;23.80;99.90;;;;;;20907608;28;20035;-78
2023/07/14 08:48:00;;;;;;;;;;;23.90;99.90;;;;;;20810523;28;19956;-79
2023/07/14 08:58:24;;;;;;;;;;;23.20;99.90;;;;;;20825273;28;19928;-78
2023/07/14 09:08:26;;;;;;;;;;;24.80;99.90;;;;;;20818434;28;19913;-80
2023/07/14 09:18:42;;;;;;;;;;;25.80;99.90;;;;;;20893990;28;19927;-79
2023/07/14 09:28:46;;;;;;;;;;;26.00;99.90;;;;;;20891540;28;20139;-80
2023/07/14 09:38:49;;;;;;;;;;;26.10;99.90;;;;;;20764402;28;19920;-78
2023/07/14 09:48:57;;;;;;;;;;;26.60;99.90;;;;;;20836824;28;19917;-80
2023/07/14 09:59:04;;;;;;;;;;;27.10;99.90;;;;;;20836704;28;20436;-79
2023/07/14 10:09:09;;;;;;;;;;;26.90;99.90;;;;;;20812909;28;19957;-79
2023/07/14 10:19:19;;;;;;;;;;;27.50;99.90;;;;;;20822909;28;19917;-80
2023/07/14 10:29:22;;;;;;;;;;;26.10;99.90;;;;;;20817217;28;19917;-79
2023/07/14 10:39:29;;;;;;;;;;;27.20;99.90;;;;;;20836044;28;19917;-81
2023/07/14 10:49:40;;;;;;;;;;;27.40;99.90;;;;;;20839368;28;20291;-80
2023/07/14 10:59:46;;;;;;;;;;;27.60;99.90;;;;;;20837424;28;19917;-80
2023/07/14 11:09:47;;;;;;;;;;;28.90;99.90;;;;;;20783805;28;19924;-80
2023/07/14 11:19:48;;;;;;;;;;;27.30;99.90;;;;;;20795794;28;19921;-79
2023/07/14 11:30:08;;;;;;;;;;;29.60;99.90;;;;;;20814021;28;19917;-80
2023/07/14 11:40:13;;;;;;;;;;;27.40;99.90;;;;;;20830884;28;19925;-81
2023/07/14 11:50:16;;;;;;;;;;;28.40;99.90;;;;;;20817696;28;20425;-80
2023/07/14 12:00:17;;;;;;;;;;;29.00;99.90;;;;;;20819053;28;20306;-79
2023/07/14 12:10:38;;;;;;;;;;;28.70;96.50;;;;;;20842203;28;20006;-81
2023/07/14 12:20:38;;;;;;;;;;;28.90;94.70;;;;;;20846121;28;19924;-81
2023/07/14 12:30:45;;;;;;;;;;;30.40;93.30;;;;;;20838451;28;19921;-81
2023/07/14 12:40:46;;;;;;;;;;;29.50;94.40;;;;;;20809406;28;19971;-79
2023/07/14 12:50:47;;;;;;;;;;;31.70;92.00;;;;;;20811514;28;19964;-80
2023/07/14 13:00:52;;;;;;;;;;;30.40;94.30;;;;;;20752932;28;19971;-80
2023/07/14 13:10:55;;;;;;;;;;;29.20;93.80;;;;;;20751111;28;20008;-79
2023/07/14 13:20:56;;;;;;;;;;;30.40;94.20;;;;;;20791726;28;19956;-78
2023/07/14 13:30:59;;;;;;;;;;;31.60;92.80;;;;;;20845201;22;19929;-76
2023/07/14 13:41:15;;;;;;;;;;;29.90;94.40;;;;;;20889521;28;19916;-76
2023/07/14 13:51:20;;;;;;;;;;;30.20;94.20;;;;;;20907771;28;19917;-75
2023/07/14 14:01:22;;;;;;;;;;;30.10;95.10;;;;;;20915284;28;19932;-76
2023/07/14 14:11:23;;;;;;;;;;;29.70;95.00;;;;;;20886026;28;20298;-75
2023/07/14 14:21:24;;;;;;;;;;;28.60;97.50;;;;;;20923220;28;19916;-76
2023/07/14 14:31:24;;;;;;;;;;;28.90;97.00;;;;;;20890944;28;19917;-76
2023/07/14 14:41:27;;;;;;;;;;;29.60;97.00;;;;;;20858479;28;19971;-77
2023/07/14 14:51:28;;;;;;;;;;;30.40;95.50;;;;;;20784961;28;19912;-78
2023/07/14 15:01:36;;;;;;;;;;;30.40;93.80;;;;;;20815276;28;19923;-77
2023/07/14 15:11:36;;;;;;;;;;;30.00;95.20;;;;;;20791184;28;20067;-78
2023/07/14 15:21:38;;;;;;;;;;;31.20;92.60;;;;;;20819900;28;19917;-76
2023/07/14 15:31:44;;;;;;;;;;;31.80;92.10;;;;;;20849990;28;20377;-78
2023/07/14 15:41:48;;;;;;;;;;;30.20;93.20;;;;;;20870122;28;19967;-78
2023/07/14 15:51:49;;;;;;;;;;;30.10;92.10;;;;;;20891657;28;19920;-80
2023/07/14 16:01:49;;;;;;;;;;;30.20;94.90;;;;;;20871083;28;19917;-81
2023/07/14 16:11:50;;;;;;;;;;;30.40;92.70;;;;;;20791181;28;20299;-81
2023/07/14 16:21:52;;;;;;;;;;;29.80;95.40;;;;;;20863514;28;19921;-79
2023/07/14 16:31:53;;;;;;;;;;;29.70;95.10;;;;;;20887919;28;19998;-79
2023/07/14 16:41:54;;;;;;;;;;;29.30;95.10;;;;;;20910740;28;19964;-80
2023/07/14 16:51:55;;;;;;;;;;;29.40;95.50;;;;;;20923399;28;20375;-77
2023/07/14 17:01:55;;;;;;;;;;;29.40;94.80;;;;;;20871325;28;19917;-77
2023/07/14 17:11:56;;;;;;;;;;;29.30;87.30;;;;;;20868131;28;20442;-77
2023/07/14 17:21:59;;;;;;;;;;;29.40;90.40;;;;;;20911137;28;20402;-77
2023/07/14 17:31:59;;;;;;;;;;;28.50;98.60;;;;;;20867695;28;19917;-77
2023/07/14 17:42:00;;;;;;;;;;;28.30;99.90;;;;;;20798165;28;19925;-77
2023/07/14 17:52:01;;;;;;;;;;;28.30;98.00;;;;;;20789253;28;19944;-77
2023/07/14 18:02:09;;;;;;;;;;;27.60;99.90;;;;;;20783347;28;19966;-77
2023/07/14 18:12:12;;;;;;;;;;;28.10;99.90;;;;;;20805604;28;19971;-77
2023/07/14 18:22:20;;;;;;;;;;;29.10;99.90;;;;;;20758447;28;19917;-77
2023/07/14 18:32:20;;;;;;;;;;;27.90;99.90;;;;;;20870073;28;19925;-76
2023/07/14 18:42:23;;;;;;;;;;;27.00;99.90;;;;;;20921808;28;20489;-76
2023/07/14 18:52:24;;;;;;;;;;;26.00;99.90;;;;;;20896686;28;19916;-76
2023/07/14 19:02:29;;;;;;;;;;;25.10;99.90;;;;;;20896566;28;19984;-76
2023/07/14 19:12:31;;;;;;;;;;;24.60;99.90;;;;;;20914064;28;20007;-76
2023/07/14 19:22:32;;;;;;;;;;;24.20;99.90;;;;;;20914013;28;19917;-76
2023/07/14 19:32:33;;;;;;;;;;;23.30;99.90;;;;;;21016098;22;19931;-78
2023/07/14 19:42:34;;;;;;;;;;;23.00;99.90;;;;;;21036347;28;19921;-78
2023/07/14 19:52:34;;;;;;;;;;;22.70;99.90;;;;;;20924442;28;20054;-78
2023/07/14 20:02:35;;;;;;;;;;;22.40;99.90;;;;;;20960705;28;19986;-78
2023/07/14 20:12:36;;;;;;;;;;;21.80;99.90;;;;;;20996119;28;19913;-77
2023/07/14 20:22:36;;;;;;;;;;;21.80;99.90;;;;;;20997393;28;19920;-76
2023/07/14 20:32:37;;;;;;;;;;;22.00;99.90;;;;;;20989026;28;19916;-75
2023/07/14 20:42:37;;;;;;;;;;;21.10;99.90;;;;;;20967647;28;19924;-75
2023/07/14 20:52:38;;;;;;;;;;;21.00;99.90;;;;;;20989321;28;20379;-75
2023/07/14 21:02:39;;;;;;;;;;;20.70;99.90;;;;;;20988525;28;20036;-75
2023/07/14 21:12:40;;;;;;;;;;;20.60;99.90;;;;;;20989972;28;19963;-75
2023/07/14 21:22:41;;;;;;;;;;;20.20;99.90;;;;;;21004045;28;19924;-75
2023/07/14 21:32:41;;;;;;;;;;;20.20;99.90;;;;;;21003066;28;20011;-75
2023/07/14 21:42:42;;;;;;;;;;;19.90;99.90;;;;;;21002648;28;20018;-75
2023/07/14 21:52:48;;;;;;;;;;;19.50;99.90;;;;;;21001702;28;20379;-75
2023/07/14 22:02:49;;;;;;;;;;;19.30;99.90;;;;;;20982605;28;19916;-75
2023/07/14 22:12:50;;;;;;;;;;;19.50;99.90;;;;;;20978368;28;19966;-75
2023/07/14 22:22:51;;;;;;;;;;;19.30;99.90;;;;;;20998843;28;20370;-75
2023/07/14 22:32:52;;;;;;;;;;;19.70;99.90;;;;;;21006396;28;19921;-80
2023/07/14 22:42:52;;;;;;;;;;;19.50;99.90;;;;;;21030002;28;19923;-78
2023/07/14 22:52:53;;;;;;;;;;;19.10;99.90;;;;;;21028789;28;19913;-80
2023/07/14 23:02:54;;;;;;;;;;;19.50;99.90;;;;;;21053673;28;20413;-79
2023/07/14 23:12:54;;;;;;;;;;;19.70;99.90;;;;;;21041267;28;19952;-78
2023/07/14 23:22:55;;;;;;;;;;;18.90;99.90;;;;;;21044826;28;19916;-77
2023/07/14 23:32:55;;;;;;;;;;;19.00;99.90;;;;;;21008216;28;19924;-77
2023/07/14 23:42:56;;;;;;;;;;;18.80;99.90;;;;;;20987965;28;19920;-78
2023/07/14 23:52:57;;;;;;;;;;;19.00;99.90;;;;;;21003121;28;19912;-78
